sensor_id;sensor_type;location;lat;lon;timestamp;temperature;humidity
45137;DHT22;30894;51.740;19.498;2022-10-23T00:01:36;13.90;99.90
45137;DHT22;30894;51.740;19.498;2022-10-23T00:04:11;13.80;99.90
45137;DHT22;30894;51.740;19.498;2022-10-23T00:06:41;13.80;99.90
45137;DHT22;30894;51.740;19.498;2022-10-23T00:09:09;13.90;99.90
45137;DHT22;30894;51.740;19.498;2022-10-23T00:11:38;13.90;99.90
45137;DHT22;30894;51.740;19.498;2022-10-23T00:14:07;13.90;99.90
45137;DHT22;30894;51.740;19.498;2022-10-23T00:16:34;13.80;99.90
45137;DHT22;30894;51.740;19.498;2022-10-23T00:19:00;13.90;99.90
45137;DHT22;30894;51.740;19.498;2022-10-23T00:21:26;13.90;99.90
45137;DHT22;30894;51.740;19.498;2022-10-23T00:23:54;13.90;99.90
45137;DHT22;30894;51.740;19.498;2022-10-23T00:26:21;13.90;99.90
45137;DHT22;30894;51.740;19.498;2022-10-23T00:28:54;13.90;99.90
45137;DHT22;30894;51.740;19.498;2022-10-23T00:31:21;13.90;99.90
45137;DHT22;30894;51.740;19.498;2022-10-23T00:33:48;13.90;99.90
45137;DHT22;30894;51.740;19.498;2022-10-23T00:36:18;13.90;99.90
45137;DHT22;30894;51.740;19.498;2022-10-23T00:38:47;13.90;99.90
45137;DHT22;30894;51.740;19.498;2022-10-23T00:41:17;13.90;99.90
45137;DHT22;30894;51.740;19.498;2022-10-23T00:44:00;13.90;99.90
45137;DHT22;30894;51.740;19.498;2022-10-23T00:46:32;13.80;99.90
45137;DHT22;30894;51.740;19.498;2022-10-23T00:48:59;13.90;99.90
45137;DHT22;30894;51.740;19.498;2022-10-23T00:51:29;13.80;99.90
45137;DHT22;30894;51.740;19.498;2022-10-23T00:54:00;13.80;99.90
45137;DHT22;30894;51.740;19.498;2022-10-23T00:56:27;13.80;99.90
45137;DHT22;30894;51.740;19.498;2022-10-23T00:58:53;13.80;99.90
45137;DHT22;30894;51.740;19.498;2022-10-23T01:01:21;13.80;99.90
45137;DHT22;30894;51.740;19.498;2022-10-23T01:03:49;13.80;99.90
45137;DHT22;30894;51.740;19.498;2022-10-23T01:09:28;13.90;99.90
45137;DHT22;30894;51.740;19.498;2022-10-23T01:12:10;13.80;99.90
45137;DHT22;30894;51.740;19.498;2022-10-23T01:15:07;13.80;99.90
45137;DHT22;30894;51.740;19.498;2022-10-23T01:18:11;13.70;99.90
45137;DHT22;30894;51.740;19.498;2022-10-23T01:21:08;13.80;99.90
45137;DHT22;30894;51.740;19.498;2022-10-23T01:26:49;13.80;99.90
45137;DHT22;30894;51.740;19.498;2022-10-23T01:32:33;13.80;99.90
45137;DHT22;30894;51.740;19.498;2022-10-23T01:35:25;13.80;99.90
45137;DHT22;30894;51.740;19.498;2022-10-23T01:38:11;13.80;99.90
45137;DHT22;30894;51.740;19.498;2022-10-23T01:40:53;13.70;99.90
45137;DHT22;30894;51.740;19.498;2022-10-23T01:43:29;13.70;99.90
45137;DHT22;30894;51.740;19.498;2022-10-23T01:46:04;13.70;99.90
45137;DHT22;30894;51.740;19.498;2022-10-23T01:48:33;13.70;99.90
45137;DHT22;30894;51.740;19.498;2022-10-23T01:51:04;13.60;99.90
45137;DHT22;30894;51.740;19.498;2022-10-23T01:53:35;13.60;99.90
45137;DHT22;30894;51.740;19.498;2022-10-23T01:56:12;13.70;99.90
45137;DHT22;30894;51.740;19.498;2022-10-23T01:58:43;13.60;99.90
45137;DHT22;30894;51.740;19.498;2022-10-23T02:01:12;13.60;99.90
45137;DHT22;30894;51.740;19.498;2022-10-23T02:03:41;13.60;99.90
45137;DHT22;30894;51.740;19.498;2022-10-23T02:06:07;13.70;99.90
45137;DHT22;30894;51.740;19.498;2022-10-23T02:08:34;13.70;99.90
45137;DHT22;30894;51.740;19.498;2022-10-23T02:11:18;13.70;99.90
45137;DHT22;30894;51.740;19.498;2022-10-23T02:14:02;13.70;99.90
45137;DHT22;30894;51.740;19.498;2022-10-23T02:20:22;13.70;99.90
45137;DHT22;30894;51.740;19.498;2022-10-23T02:22:58;13.70;99.90
45137;DHT22;30894;51.740;19.498;2022-10-23T02:25:53;13.70;99.90
45137;DHT22;30894;51.740;19.498;2022-10-23T02:28:25;13.70;99.90
45137;DHT22;30894;51.740;19.498;2022-10-23T02:30:57;13.70;99.90
45137;DHT22;30894;51.740;19.498;2022-10-23T02:33:25;13.70;99.90
45137;DHT22;30894;51.740;19.498;2022-10-23T02:35:52;13.60;99.90
45137;DHT22;30894;51.740;19.498;2022-10-23T02:41:05;13.60;99.90
45137;DHT22;30894;51.740;19.498;2022-10-23T02:43:42;13.60;99.90
45137;DHT22;30894;51.740;19.498;2022-10-23T02:46:37;13.70;99.90
45137;DHT22;30894;51.740;19.498;2022-10-23T02:49:23;13.70;99.90
45137;DHT22;30894;51.740;19.498;2022-10-23T02:52:08;13.60;99.90
45137;DHT22;30894;51.740;19.498;2022-10-23T03:05:26;13.60;99.90
45137;DHT22;30894;51.740;19.498;2022-10-23T03:07:55;13.60;99.90
45137;DHT22;30894;51.740;19.498;2022-10-23T03:10:21;13.70;99.90
45137;DHT22;30894;51.740;19.498;2022-10-23T03:12:47;13.80;99.90
45137;DHT22;30894;51.740;19.498;2022-10-23T03:15:14;13.70;99.90
45137;DHT22;30894;51.740;19.498;2022-10-23T03:17:42;13.70;99.90
45137;DHT22;30894;51.740;19.498;2022-10-23T03:20:09;13.80;99.90
45137;DHT22;30894;51.740;19.498;2022-10-23T03:22:35;13.80;99.90
45137;DHT22;30894;51.740;19.498;2022-10-23T03:25:02;13.80;99.90
45137;DHT22;30894;51.740;19.498;2022-10-23T03:27:28;13.80;99.90
45137;DHT22;30894;51.740;19.498;2022-10-23T03:29:54;13.90;99.90
45137;DHT22;30894;51.740;19.498;2022-10-23T03:32:21;13.90;99.90
45137;DHT22;30894;51.740;19.498;2022-10-23T03:34:47;13.90;99.90
45137;DHT22;30894;51.740;19.498;2022-10-23T03:37:13;14.00;99.90
45137;DHT22;30894;51.740;19.498;2022-10-23T03:39:39;14.00;99.90
45137;DHT22;30894;51.740;19.498;2022-10-23T03:42:05;14.00;99.90
45137;DHT22;30894;51.740;19.498;2022-10-23T03:44:31;14.00;99.90
45137;DHT22;30894;51.740;19.498;2022-10-23T03:46:58;14.10;99.90
45137;DHT22;30894;51.740;19.498;2022-10-23T03:49:24;14.10;99.90
45137;DHT22;30894;51.740;19.498;2022-10-23T03:51:51;14.10;99.90
45137;DHT22;30894;51.740;19.498;2022-10-23T03:54:20;14.10;99.90
45137;DHT22;30894;51.740;19.498;2022-10-23T03:56:47;14.00;99.90
45137;DHT22;30894;51.740;19.498;2022-10-23T03:59:13;13.80;99.90
45137;DHT22;30894;51.740;19.498;2022-10-23T04:01:39;13.70;99.90
45137;DHT22;30894;51.740;19.498;2022-10-23T04:04:05;13.70;99.90
45137;DHT22;30894;51.740;19.498;2022-10-23T04:06:31;13.70;99.90
45137;DHT22;30894;51.740;19.498;2022-10-23T04:08:57;13.60;99.90
45137;DHT22;30894;51.740;19.498;2022-10-23T04:11:23;13.60;99.90
45137;DHT22;30894;51.740;19.498;2022-10-23T04:13:49;13.60;99.90
45137;DHT22;30894;51.740;19.498;2022-10-23T04:16:15;13.60;99.90
45137;DHT22;30894;51.740;19.498;2022-10-23T04:18:41;13.60;99.90
45137;DHT22;30894;51.740;19.498;2022-10-23T04:21:08;13.50;99.90
45137;DHT22;30894;51.740;19.498;2022-10-23T04:23:34;13.60;99.90
45137;DHT22;30894;51.740;19.498;2022-10-23T04:26:00;13.60;99.90
45137;DHT22;30894;51.740;19.498;2022-10-23T04:28:26;13.70;99.90
45137;DHT22;30894;51.740;19.498;2022-10-23T04:30:53;13.80;99.90
45137;DHT22;30894;51.740;19.498;2022-10-23T04:33:19;13.80;99.90
45137;DHT22;30894;51.740;19.498;2022-10-23T04:35:45;13.80;99.90
45137;DHT22;30894;51.740;19.498;2022-10-23T04:38:11;13.90;99.90
45137;DHT22;30894;51.740;19.498;2022-10-23T04:40:37;13.90;99.90
45137;DHT22;30894;51.740;19.498;2022-10-23T04:43:04;13.90;99.90
45137;DHT22;30894;51.740;19.498;2022-10-23T04:45:32;13.90;99.90
45137;DHT22;30894;51.740;19.498;2022-10-23T04:47:58;13.90;99.90
45137;DHT22;30894;51.740;19.498;2022-10-23T04:50:24;13.90;99.90
45137;DHT22;30894;51.740;19.498;2022-10-23T04:52:54;13.90;99.90
45137;DHT22;30894;51.740;19.498;2022-10-23T04:55:21;13.90;99.90
45137;DHT22;30894;51.740;19.498;2022-10-23T04:57:47;13.90;99.90
45137;DHT22;30894;51.740;19.498;2022-10-23T05:00:14;14.00;99.90
45137;DHT22;30894;51.740;19.498;2022-10-23T05:02:40;13.90;99.90
45137;DHT22;30894;51.740;19.498;2022-10-23T05:05:06;14.00;99.90
45137;DHT22;30894;51.740;19.498;2022-10-23T05:07:34;14.00;99.90
45137;DHT22;30894;51.740;19.498;2022-10-23T05:10:01;14.00;99.90
45137;DHT22;30894;51.740;19.498;2022-10-23T05:12:28;14.00;99.90
45137;DHT22;30894;51.740;19.498;2022-10-23T05:14:54;14.00;99.90
45137;DHT22;30894;51.740;19.498;2022-10-23T05:17:24;14.00;99.90
45137;DHT22;30894;51.740;19.498;2022-10-23T05:19:54;14.00;99.90
45137;DHT22;30894;51.740;19.498;2022-10-23T05:22:24;14.00;99.90
45137;DHT22;30894;51.740;19.498;2022-10-23T05:24:53;14.00;99.90
45137;DHT22;30894;51.740;19.498;2022-10-23T05:27:19;14.00;99.90
45137;DHT22;30894;51.740;19.498;2022-10-23T05:29:45;14.00;99.90
45137;DHT22;30894;51.740;19.498;2022-10-23T05:32:12;14.00;99.90
45137;DHT22;30894;51.740;19.498;2022-10-23T05:34:41;14.00;99.90
45137;DHT22;30894;51.740;19.498;2022-10-23T05:37:09;14.00;99.90
45137;DHT22;30894;51.740;19.498;2022-10-23T05:39:38;14.00;99.90
45137;DHT22;30894;51.740;19.498;2022-10-23T05:42:04;14.00;99.90
45137;DHT22;30894;51.740;19.498;2022-10-23T05:44:30;14.00;99.90
45137;DHT22;30894;51.740;19.498;2022-10-23T05:46:56;14.10;99.90
45137;DHT22;30894;51.740;19.498;2022-10-23T05:49:25;14.00;99.90
45137;DHT22;30894;51.740;19.498;2022-10-23T05:51:51;14.00;99.90
45137;DHT22;30894;51.740;19.498;2022-10-23T05:54:17;14.00;99.90
45137;DHT22;30894;51.740;19.498;2022-10-23T05:56:43;14.00;99.90
45137;DHT22;30894;51.740;19.498;2022-10-23T05:59:09;13.90;99.90
45137;DHT22;30894;51.740;19.498;2022-10-23T06:01:36;13.90;99.90
45137;DHT22;30894;51.740;19.498;2022-10-23T06:04:03;13.90;99.90
45137;DHT22;30894;51.740;19.498;2022-10-23T06:06:29;13.90;99.90
45137;DHT22;30894;51.740;19.498;2022-10-23T06:08:56;13.80;99.90
45137;DHT22;30894;51.740;19.498;2022-10-23T06:11:22;13.80;99.90
45137;DHT22;30894;51.740;19.498;2022-10-23T06:13:48;13.80;99.90
45137;DHT22;30894;51.740;19.498;2022-10-23T06:16:25;13.70;99.90
45137;DHT22;30894;51.740;19.498;2022-10-23T06:18:52;13.70;99.90
45137;DHT22;30894;51.740;19.498;2022-10-23T06:21:18;13.70;99.90
45137;DHT22;30894;51.740;19.498;2022-10-23T06:23:45;13.70;99.90
45137;DHT22;30894;51.740;19.498;2022-10-23T06:26:13;13.60;99.90
45137;DHT22;30894;51.740;19.498;2022-10-23T06:28:40;13.70;99.90
45137;DHT22;30894;51.740;19.498;2022-10-23T06:31:09;13.70;99.90
45137;DHT22;30894;51.740;19.498;2022-10-23T06:33:36;13.70;99.90
45137;DHT22;30894;51.740;19.498;2022-10-23T06:36:02;13.70;99.90
45137;DHT22;30894;51.740;19.498;2022-10-23T06:38:30;13.80;99.90
45137;DHT22;30894;51.740;19.498;2022-10-23T06:41:15;13.80;99.90
45137;DHT22;30894;51.740;19.498;2022-10-23T06:43:43;13.70;99.90
45137;DHT22;30894;51.740;19.498;2022-10-23T06:46:11;13.80;99.90
45137;DHT22;30894;51.740;19.498;2022-10-23T06:48:37;13.80;99.90
45137;DHT22;30894;51.740;19.498;2022-10-23T06:51:08;13.80;99.90
45137;DHT22;30894;51.740;19.498;2022-10-23T06:53:36;13.90;99.90
45137;DHT22;30894;51.740;19.498;2022-10-23T06:56:04;14.00;99.90
45137;DHT22;30894;51.740;19.498;2022-10-23T06:58:33;14.00;99.90
45137;DHT22;30894;51.740;19.498;2022-10-23T07:01:05;14.10;99.90
45137;DHT22;30894;51.740;19.498;2022-10-23T07:03:32;14.10;99.90
45137;DHT22;30894;51.740;19.498;2022-10-23T07:06:00;14.30;99.90
45137;DHT22;30894;51.740;19.498;2022-10-23T07:08:27;14.40;99.90
45137;DHT22;30894;51.740;19.498;2022-10-23T07:10:54;14.50;99.90
45137;DHT22;30894;51.740;19.498;2022-10-23T07:13:20;14.60;99.90
45137;DHT22;30894;51.740;19.498;2022-10-23T07:15:47;14.70;99.90
45137;DHT22;30894;51.740;19.498;2022-10-23T07:18:13;15.10;99.90
45137;DHT22;30894;51.740;19.498;2022-10-23T07:20:42;15.70;99.90
45137;DHT22;30894;51.740;19.498;2022-10-23T07:23:10;16.20;99.90
45137;DHT22;30894;51.740;19.498;2022-10-23T07:25:37;16.70;99.90
45137;DHT22;30894;51.740;19.498;2022-10-23T07:28:03;17.20;99.90
45137;DHT22;30894;51.740;19.498;2022-10-23T07:30:31;17.20;99.90
45137;DHT22;30894;51.740;19.498;2022-10-23T07:32:57;16.90;99.90
45137;DHT22;30894;51.740;19.498;2022-10-23T07:35:24;16.60;99.90
45137;DHT22;30894;51.740;19.498;2022-10-23T07:37:52;16.30;99.90
45137;DHT22;30894;51.740;19.498;2022-10-23T07:40:18;16.10;99.90
45137;DHT22;30894;51.740;19.498;2022-10-23T07:42:45;15.90;99.90
45137;DHT22;30894;51.740;19.498;2022-10-23T07:45:13;15.70;99.90
45137;DHT22;30894;51.740;19.498;2022-10-23T07:47:39;15.50;99.90
45137;DHT22;30894;51.740;19.498;2022-10-23T07:50:09;15.50;99.90
45137;DHT22;30894;51.740;19.498;2022-10-23T07:52:35;15.40;99.90
45137;DHT22;30894;51.740;19.498;2022-10-23T07:55:02;15.40;99.90
45137;DHT22;30894;51.740;19.498;2022-10-23T07:57:29;15.30;99.90
45137;DHT22;30894;51.740;19.498;2022-10-23T07:59:59;15.30;99.90
45137;DHT22;30894;51.740;19.498;2022-10-23T08:02:24;15.20;99.90
45137;DHT22;30894;51.740;19.498;2022-10-23T08:04:51;15.20;99.90
45137;DHT22;30894;51.740;19.498;2022-10-23T08:07:18;15.20;99.90
45137;DHT22;30894;51.740;19.498;2022-10-23T08:09:44;15.30;99.90
45137;DHT22;30894;51.740;19.498;2022-10-23T08:12:11;15.40;99.90
45137;DHT22;30894;51.740;19.498;2022-10-23T08:14:37;15.50;99.90
45137;DHT22;30894;51.740;19.498;2022-10-23T08:17:04;15.50;99.90
45137;DHT22;30894;51.740;19.498;2022-10-23T08:19:35;15.50;99.90
45137;DHT22;30894;51.740;19.498;2022-10-23T08:22:01;15.40;99.90
45137;DHT22;30894;51.740;19.498;2022-10-23T08:24:28;15.30;99.90
45137;DHT22;30894;51.740;19.498;2022-10-23T08:26:54;15.20;99.90
45137;DHT22;30894;51.740;19.498;2022-10-23T08:29:21;15.20;99.90
45137;DHT22;30894;51.740;19.498;2022-10-23T08:31:47;15.30;99.90
45137;DHT22;30894;51.740;19.498;2022-10-23T08:34:14;15.30;99.90
45137;DHT22;30894;51.740;19.498;2022-10-23T08:36:41;15.40;99.90
45137;DHT22;30894;51.740;19.498;2022-10-23T08:39:08;15.30;99.90
45137;DHT22;30894;51.740;19.498;2022-10-23T08:41:35;15.40;99.90
45137;DHT22;30894;51.740;19.498;2022-10-23T08:47:03;15.50;99.90
45137;DHT22;30894;51.740;19.498;2022-10-23T08:49:51;15.60;99.90
45137;DHT22;30894;51.740;19.498;2022-10-23T08:56:11;15.80;99.90
45137;DHT22;30894;51.740;19.498;2022-10-23T08:58:47;15.90;99.90
45137;DHT22;30894;51.740;19.498;2022-10-23T09:01:41;15.90;99.90
45137;DHT22;30894;51.740;19.498;2022-10-23T09:04:12;15.80;99.90
45137;DHT22;30894;51.740;19.498;2022-10-23T09:10:27;15.70;99.90
45137;DHT22;30894;51.740;19.498;2022-10-23T09:19:14;15.80;99.90
45137;DHT22;30894;51.740;19.498;2022-10-23T09:21:45;16.00;99.90
45137;DHT22;30894;51.740;19.498;2022-10-23T09:24:18;16.10;99.90
45137;DHT22;30894;51.740;19.498;2022-10-23T09:26:49;16.40;99.90
45137;DHT22;30894;51.740;19.498;2022-10-23T09:32:01;16.70;99.90
45137;DHT22;30894;51.740;19.498;2022-10-23T09:34:32;17.00;99.90
45137;DHT22;30894;51.740;19.498;2022-10-23T09:37:16;17.20;99.90
45137;DHT22;30894;51.740;19.498;2022-10-23T09:39:48;17.50;99.90
45137;DHT22;30894;51.740;19.498;2022-10-23T09:42:23;18.40;99.90
45137;DHT22;30894;51.740;19.498;2022-10-23T09:44:52;19.20;99.90
45137;DHT22;30894;51.740;19.498;2022-10-23T09:47:21;19.70;99.90
45137;DHT22;30894;51.740;19.498;2022-10-23T09:49:51;19.60;99.90
45137;DHT22;30894;51.740;19.498;2022-10-23T09:52:20;19.30;99.90
45137;DHT22;30894;51.740;19.498;2022-10-23T09:54:59;19.30;99.90
45137;DHT22;30894;51.740;19.498;2022-10-23T09:57:36;19.50;99.90
45137;DHT22;30894;51.740;19.498;2022-10-23T10:00:23;19.50;99.90
45137;DHT22;30894;51.740;19.498;2022-10-23T10:03:00;19.20;99.90
45137;DHT22;30894;51.740;19.498;2022-10-23T10:05:35;18.90;99.90
45137;DHT22;30894;51.740;19.498;2022-10-23T10:08:38;18.70;99.90
45137;DHT22;30894;51.740;19.498;2022-10-23T10:16:43;18.70;99.90
45137;DHT22;30894;51.740;19.498;2022-10-23T10:34:29;20.10;99.90
45137;DHT22;30894;51.740;19.498;2022-10-23T10:37:44;19.90;99.90
45137;DHT22;30894;51.740;19.498;2022-10-23T10:40:37;19.50;99.90
45137;DHT22;30894;51.740;19.498;2022-10-23T10:43:29;19.40;99.90
45137;DHT22;30894;51.740;19.498;2022-10-23T10:49:49;20.80;99.90
45137;DHT22;30894;51.740;19.498;2022-10-23T10:54:58;21.50;98.80
45137;DHT22;30894;51.740;19.498;2022-10-23T10:57:51;21.10;99.40
45137;DHT22;30894;51.740;19.498;2022-10-23T11:00:22;20.70;99.90
45137;DHT22;30894;51.740;19.498;2022-10-23T11:02:59;20.40;99.90
45137;DHT22;30894;51.740;19.498;2022-10-23T11:05:38;20.30;99.90
45137;DHT22;30894;51.740;19.498;2022-10-23T11:08:26;20.10;99.90
45137;DHT22;30894;51.740;19.498;2022-10-23T11:11:04;19.70;99.90
45137;DHT22;30894;51.740;19.498;2022-10-23T11:13:37;19.50;99.90
45137;DHT22;30894;51.740;19.498;2022-10-23T11:16:14;19.30;99.90
45137;DHT22;30894;51.740;19.498;2022-10-23T11:28:18;19.10;99.90
45137;DHT22;30894;51.740;19.498;2022-10-23T11:30:59;19.00;99.90
45137;DHT22;30894;51.740;19.498;2022-10-23T11:36:54;19.10;99.90
45137;DHT22;30894;51.740;19.498;2022-10-23T11:39:24;19.20;99.90
45137;DHT22;30894;51.740;19.498;2022-10-23T11:44:39;19.20;99.90
45137;DHT22;30894;51.740;19.498;2022-10-23T11:47:37;19.20;99.90
45137;DHT22;30894;51.740;19.498;2022-10-23T11:52:38;19.20;99.90
45137;DHT22;30894;51.740;19.498;2022-10-23T11:55:27;19.30;99.90
45137;DHT22;30894;51.740;19.498;2022-10-23T12:00:39;19.60;99.90
45137;DHT22;30894;51.740;19.498;2022-10-23T12:03:25;20.10;99.90
45137;DHT22;30894;51.740;19.498;2022-10-23T12:06:02;20.10;99.90
45137;DHT22;30894;51.740;19.498;2022-10-23T12:08:33;20.30;99.90
45137;DHT22;30894;51.740;19.498;2022-10-23T12:11:00;21.10;99.90
45137;DHT22;30894;51.740;19.498;2022-10-23T12:16:05;22.10;99.10
45137;DHT22;30894;51.740;19.498;2022-10-23T12:18:46;22.20;97.30
45137;DHT22;30894;51.740;19.498;2022-10-23T12:21:18;21.60;97.90
45137;DHT22;30894;51.740;19.498;2022-10-23T12:26:46;21.60;99.30
45137;DHT22;30894;51.740;19.498;2022-10-23T12:32:41;22.00;97.60
45137;DHT22;30894;51.740;19.498;2022-10-23T12:38:17;21.50;99.00
45137;DHT22;30894;51.740;19.498;2022-10-23T12:41:11;21.30;99.40
45137;DHT22;30894;51.740;19.498;2022-10-23T12:43:58;21.00;99.90
45137;DHT22;30894;51.740;19.498;2022-10-23T12:46:34;20.70;99.90
45137;DHT22;30894;51.740;19.498;2022-10-23T12:49:13;20.80;99.90
45137;DHT22;30894;51.740;19.498;2022-10-23T12:51:54;21.20;99.90
45137;DHT22;30894;51.740;19.498;2022-10-23T12:54:23;21.50;99.90
45137;DHT22;30894;51.740;19.498;2022-10-23T12:56:49;22.10;99.00
45137;DHT22;30894;51.740;19.498;2022-10-23T12:59:25;22.90;96.70
45137;DHT22;30894;51.740;19.498;2022-10-23T13:01:53;22.90;95.20
45137;DHT22;30894;51.740;19.498;2022-10-23T13:04:33;22.50;95.70
45137;DHT22;30894;51.740;19.498;2022-10-23T13:07:02;22.40;96.50
45137;DHT22;30894;51.740;19.498;2022-10-23T13:12:08;23.00;95.00
45137;DHT22;30894;51.740;19.498;2022-10-23T13:17:45;23.30;93.80
45137;DHT22;30894;51.740;19.498;2022-10-23T13:20:32;23.70;93.30
45137;DHT22;30894;51.740;19.498;2022-10-23T13:25:42;24.40;91.30
45137;DHT22;30894;51.740;19.498;2022-10-23T13:28:26;24.20;91.00
45137;DHT22;30894;51.740;19.498;2022-10-23T13:33:48;23.00;92.70
45137;DHT22;30894;51.740;19.498;2022-10-23T13:38:46;21.80;95.40
45137;DHT22;30894;51.740;19.498;2022-10-23T13:41:23;21.20;97.10
45137;DHT22;30894;51.740;19.498;2022-10-23T13:43:51;20.60;99.10
45137;DHT22;30894;51.740;19.498;2022-10-23T13:46:20;20.10;99.90
45137;DHT22;30894;51.740;19.498;2022-10-23T13:48:48;19.70;99.90
45137;DHT22;30894;51.740;19.498;2022-10-23T13:51:20;19.40;99.90
45137;DHT22;30894;51.740;19.498;2022-10-23T13:53:49;19.30;99.90
45137;DHT22;30894;51.740;19.498;2022-10-23T13:56:17;19.40;99.90
45137;DHT22;30894;51.740;19.498;2022-10-23T13:58:46;19.40;99.90
45137;DHT22;30894;51.740;19.498;2022-10-23T14:01:28;19.10;99.90
45137;DHT22;30894;51.740;19.498;2022-10-23T14:03:57;18.90;99.90
45137;DHT22;30894;51.740;19.498;2022-10-23T14:06:25;18.60;99.90
45137;DHT22;30894;51.740;19.498;2022-10-23T14:08:52;18.50;99.90
45137;DHT22;30894;51.740;19.498;2022-10-23T14:11:18;18.40;99.90
45137;DHT22;30894;51.740;19.498;2022-10-23T14:13:51;18.40;99.90
45137;DHT22;30894;51.740;19.498;2022-10-23T14:16:21;18.20;99.90
45137;DHT22;30894;51.740;19.498;2022-10-23T14:18:48;18.00;99.90
45137;DHT22;30894;51.740;19.498;2022-10-23T14:21:18;17.90;99.90
45137;DHT22;30894;51.740;19.498;2022-10-23T14:23:49;17.80;99.90
45137;DHT22;30894;51.740;19.498;2022-10-23T14:26:19;17.80;99.90
45137;DHT22;30894;51.740;19.498;2022-10-23T14:28:54;17.80;99.90
45137;DHT22;30894;51.740;19.498;2022-10-23T14:31:22;17.90;99.90
45137;DHT22;30894;51.740;19.498;2022-10-23T14:33:54;18.00;99.90
45137;DHT22;30894;51.740;19.498;2022-10-23T14:36:22;18.00;99.90
45137;DHT22;30894;51.740;19.498;2022-10-23T14:38:49;18.00;99.90
45137;DHT22;30894;51.740;19.498;2022-10-23T14:41:16;17.90;99.90
45137;DHT22;30894;51.740;19.498;2022-10-23T14:43:43;17.90;99.90
45137;DHT22;30894;51.740;19.498;2022-10-23T14:46:14;17.80;99.90
45137;DHT22;30894;51.740;19.498;2022-10-23T14:48:42;17.70;99.90
45137;DHT22;30894;51.740;19.498;2022-10-23T14:51:23;17.60;99.90
45137;DHT22;30894;51.740;19.498;2022-10-23T14:53:57;17.50;99.90
45137;DHT22;30894;51.740;19.498;2022-10-23T14:56:26;17.40;99.90
45137;DHT22;30894;51.740;19.498;2022-10-23T14:58:54;17.30;99.90
45137;DHT22;30894;51.740;19.498;2022-10-23T15:01:41;17.10;99.90
45137;DHT22;30894;51.740;19.498;2022-10-23T15:04:08;16.90;99.90
45137;DHT22;30894;51.740;19.498;2022-10-23T15:06:36;16.70;99.90
45137;DHT22;30894;51.740;19.498;2022-10-23T15:09:03;16.50;99.90
45137;DHT22;30894;51.740;19.498;2022-10-23T15:11:30;16.30;99.90
45137;DHT22;30894;51.740;19.498;2022-10-23T15:13:59;16.00;99.90
45137;DHT22;30894;51.740;19.498;2022-10-23T15:16:25;15.80;99.90
45137;DHT22;30894;51.740;19.498;2022-10-23T15:18:52;15.60;99.90
45137;DHT22;30894;51.740;19.498;2022-10-23T15:21:18;15.30;99.90
45137;DHT22;30894;51.740;19.498;2022-10-23T15:23:45;15.10;99.90
45137;DHT22;30894;51.740;19.498;2022-10-23T15:26:15;15.00;99.90
45137;DHT22;30894;51.740;19.498;2022-10-23T15:28:47;14.90;99.90
45137;DHT22;30894;51.740;19.498;2022-10-23T15:34:12;14.40;99.90
45137;DHT22;30894;51.740;19.498;2022-10-23T15:36:45;14.20;99.90
45137;DHT22;30894;51.740;19.498;2022-10-23T15:39:17;14.00;99.90
45137;DHT22;30894;51.740;19.498;2022-10-23T15:41:46;13.80;99.90
45137;DHT22;30894;51.740;19.498;2022-10-23T15:44:17;13.70;99.90
45137;DHT22;30894;51.740;19.498;2022-10-23T15:46:46;13.50;99.90
45137;DHT22;30894;51.740;19.498;2022-10-23T15:49:13;13.40;99.90
45137;DHT22;30894;51.740;19.498;2022-10-23T15:51:41;13.30;99.90
45137;DHT22;30894;51.740;19.498;2022-10-23T15:54:11;13.30;99.90
45137;DHT22;30894;51.740;19.498;2022-10-23T15:56:45;13.20;99.90
45137;DHT22;30894;51.740;19.498;2022-10-23T15:59:16;13.00;99.90
45137;DHT22;30894;51.740;19.498;2022-10-23T16:01:55;12.80;99.90
45137;DHT22;30894;51.740;19.498;2022-10-23T16:04:23;12.60;99.90
45137;DHT22;30894;51.740;19.498;2022-10-23T16:06:51;12.50;99.90
45137;DHT22;30894;51.740;19.498;2022-10-23T16:09:18;12.40;99.90
45137;DHT22;30894;51.740;19.498;2022-10-23T16:11:47;12.30;99.90
45137;DHT22;30894;51.740;19.498;2022-10-23T16:14:15;12.20;99.90
45137;DHT22;30894;51.740;19.498;2022-10-23T16:16:49;12.10;99.90
45137;DHT22;30894;51.740;19.498;2022-10-23T16:19:18;12.00;99.90
45137;DHT22;30894;51.740;19.498;2022-10-23T16:21:48;11.90;99.90
45137;DHT22;30894;51.740;19.498;2022-10-23T16:24:19;11.80;99.90
45137;DHT22;30894;51.740;19.498;2022-10-23T16:26:46;11.70;99.90
45137;DHT22;30894;51.740;19.498;2022-10-23T16:29:21;11.70;99.90
45137;DHT22;30894;51.740;19.498;2022-10-23T16:31:53;11.60;99.90
45137;DHT22;30894;51.740;19.498;2022-10-23T16:34:26;11.60;99.90
45137;DHT22;30894;51.740;19.498;2022-10-23T16:36:53;11.50;99.90
45137;DHT22;30894;51.740;19.498;2022-10-23T16:39:26;11.50;99.90
45137;DHT22;30894;51.740;19.498;2022-10-23T16:42:04;11.50;99.90
45137;DHT22;30894;51.740;19.498;2022-10-23T16:44:34;11.40;99.90
45137;DHT22;30894;51.740;19.498;2022-10-23T16:47:07;11.40;99.90
45137;DHT22;30894;51.740;19.498;2022-10-23T16:49:44;11.30;99.90
45137;DHT22;30894;51.740;19.498;2022-10-23T16:52:12;11.30;99.90
45137;DHT22;30894;51.740;19.498;2022-10-23T16:54:47;11.10;99.90
45137;DHT22;30894;51.740;19.498;2022-10-23T16:57:14;11.10;99.90
45137;DHT22;30894;51.740;19.498;2022-10-23T16:59:42;10.90;99.90
45137;DHT22;30894;51.740;19.498;2022-10-23T17:02:17;10.80;99.90
45137;DHT22;30894;51.740;19.498;2022-10-23T17:04:52;10.70;99.90
45137;DHT22;30894;51.740;19.498;2022-10-23T17:07:23;10.60;99.90
45137;DHT22;30894;51.740;19.498;2022-10-23T17:09:52;10.50;99.90
45137;DHT22;30894;51.740;19.498;2022-10-23T17:12:19;10.50;99.90
45137;DHT22;30894;51.740;19.498;2022-10-23T17:14:46;10.40;99.90
45137;DHT22;30894;51.740;19.498;2022-10-23T17:17:14;10.40;99.90
45137;DHT22;30894;51.740;19.498;2022-10-23T17:19:40;10.40;99.90
45137;DHT22;30894;51.740;19.498;2022-10-23T17:22:08;10.30;99.90
45137;DHT22;30894;51.740;19.498;2022-10-23T17:24:37;10.30;99.90
45137;DHT22;30894;51.740;19.498;2022-10-23T17:27:10;10.30;99.90
45137;DHT22;30894;51.740;19.498;2022-10-23T17:29:37;10.40;99.90
45137;DHT22;30894;51.740;19.498;2022-10-23T17:32:04;10.50;99.90
45137;DHT22;30894;51.740;19.498;2022-10-23T17:34:31;10.60;99.90
45137;DHT22;30894;51.740;19.498;2022-10-23T17:36:57;10.50;99.90
45137;DHT22;30894;51.740;19.498;2022-10-23T17:39:26;10.50;99.90
45137;DHT22;30894;51.740;19.498;2022-10-23T17:41:55;10.30;99.90